FBT98CS LFMD-LFPB
Flight info
| Callsign | FBT98CS |
|---|---|
| Flight time | 1h 18m |
| Altitude | 34000 |
| Route | OKTET DCT GIPNO DCT LOGNI DCT MOKIP DCT ARFOZ DCT DJL |
| Aircraft | BBJ2/M-SDE2E3FGHIRWXY/LB1 |
Departure
| Time | 2026-04-21 20:37 |
|---|---|
| Airport | Cannes Mandelieu Airport (LFMD) |
Arrival
| Time | 2026-04-21 21:56 |
|---|---|
| Airport | Paris-Le Bourget International Airport (LFPB) |
| Time | Latitude | Longitude | Altitude | Speed | Heading |
|---|---|---|---|---|---|
| 2026-04-21 20:08 | 43.54613 | 6.95350 | 17 ft | 0 kts | 173° |
| 2026-04-21 20:31 | 43.54611 | 6.95350 | 17 ft | 1 kts | 173° |
| 2026-04-21 20:31 | 43.54601 | 6.95350 | 17 ft | 3 kts | 183° |
| 2026-04-21 20:31 | 43.54586 | 6.95310 | 17 ft | 7 kts | 291° |
| 2026-04-21 20:32 | 43.54628 | 6.95284 | 20 ft | 7 kts | 351° |
| 2026-04-21 20:32 | 43.54673 | 6.95277 | 18 ft | 5 kts | 353° |
| 2026-04-21 20:32 | 43.54707 | 6.95271 | 19 ft | 6 kts | 352° |
| 2026-04-21 20:32 | 43.54781 | 6.95258 | 18 ft | 15 kts | 353° |
| 2026-04-21 20:33 | 43.54895 | 6.95238 | 19 ft | 19 kts | 352° |
| 2026-04-21 20:33 | 43.55028 | 6.95214 | 19 ft | 19 kts | 352° |
| 2026-04-21 20:33 | 43.55159 | 6.95190 | 20 ft | 19 kts | 353° |
| 2026-04-21 20:33 | 43.55283 | 6.95169 | 20 ft | 15 kts | 352° |
| 2026-04-21 20:34 | 43.55356 | 6.95155 | 21 ft | 8 kts | 352° |
| 2026-04-21 20:34 | 43.55412 | 6.95142 | 21 ft | 8 kts | 340° |
| 2026-04-21 20:34 | 43.55423 | 6.95132 | 23 ft | 1 kts | 323° |
| 2026-04-21 20:34 | 43.55428 | 6.95124 | 22 ft | 1 kts | 309° |
| 2026-04-21 20:35 | 43.55432 | 6.95114 | 21 ft | 1 kts | 294° |
| 2026-04-21 20:35 | 43.55433 | 6.95106 | 21 ft | 0 kts | 285° |
| 2026-04-21 20:35 | 43.55434 | 6.95105 | 21 ft | 1 kts | 284° |
| 2026-04-21 20:35 | 43.55434 | 6.95096 | 21 ft | 1 kts | 276° |
| 2026-04-21 20:36 | 43.55435 | 6.95080 | 22 ft | 2 kts | 272° |
| 2026-04-21 20:36 | 43.55432 | 6.95034 | 24 ft | 7 kts | 257° |
| 2026-04-21 20:36 | 43.55407 | 6.94983 | 24 ft | 6 kts | 207° |
| 2026-04-21 20:36 | 43.55366 | 6.94986 | 22 ft | 13 kts | 169° |
| 2026-04-21 20:37 | 43.54953 | 6.95061 | 17 ft | 106 kts | 173° |
| 2026-04-21 20:37 | 43.53974 | 6.95238 | 181 ft | 164 kts | 172° |
| 2026-04-21 20:37 | 43.52907 | 6.95452 | 1314 ft | 152 kts | 165° |
| 2026-04-21 20:37 | 43.51886 | 6.96037 | 1737 ft | 173 kts | 153° |
| 2026-04-21 20:38 | 43.50723 | 6.96816 | 2334 ft | 196 kts | 153° |
| 2026-04-21 20:38 | 43.49471 | 6.97645 | 2925 ft | 213 kts | 154° |
| 2026-04-21 20:38 | 43.48122 | 6.98777 | 3117 ft | 235 kts | 137° |
| 2026-04-21 20:38 | 43.46922 | 7.00376 | 3218 ft | 236 kts | 142° |
| 2026-04-21 20:39 | 43.45388 | 7.01240 | 3494 ft | 243 kts | 168° |
| 2026-04-21 20:39 | 43.43670 | 7.01429 | 3315 ft | 255 kts | 186° |
| 2026-04-21 20:39 | 43.41974 | 7.00698 | 2934 ft | 258 kts | 209° |
| 2026-04-21 20:39 | 43.40681 | 6.99040 | 2716 ft | 252 kts | 240° |
| 2026-04-21 20:40 | 43.40203 | 6.96826 | 2768 ft | 238 kts | 270° |
| 2026-04-21 20:40 | 43.40557 | 6.94670 | 2752 ft | 238 kts | 298° |
| 2026-04-21 20:40 | 43.41616 | 6.92943 | 2762 ft | 238 kts | 323° |
| 2026-04-21 20:40 | 43.43116 | 6.91824 | 2649 ft | 254 kts | 342° |
| 2026-04-21 20:41 | 43.44846 | 6.91129 | 3454 ft | 259 kts | 343° |
| 2026-04-21 20:41 | 43.46558 | 6.90434 | 4758 ft | 255 kts | 342° |
| 2026-04-21 20:41 | 43.48294 | 6.89780 | 5741 ft | 263 kts | 342° |
| 2026-04-21 20:41 | 43.50067 | 6.89136 | 6844 ft | 261 kts | 343° |
| 2026-04-21 20:42 | 43.51836 | 6.88500 | 7748 ft | 269 kts | 342° |
| 2026-04-21 20:42 | 43.53642 | 6.87868 | 8895 ft | 266 kts | 342° |
| 2026-04-21 20:42 | 43.55448 | 6.87254 | 9946 ft | 268 kts | 342° |
| 2026-04-21 20:42 | 43.57306 | 6.86638 | 10541 ft | 286 kts | 343° |
| 2026-04-21 20:43 | 43.59314 | 6.85988 | 10829 ft | 311 kts | 343° |
| 2026-04-21 20:43 | 43.61497 | 6.85287 | 11246 ft | 331 kts | 343° |
| 2026-04-21 20:43 | 43.63779 | 6.84533 | 11833 ft | 344 kts | 342° |
| 2026-04-21 20:43 | 43.66147 | 6.83732 | 12440 ft | 354 kts | 342° |
| 2026-04-21 20:44 | 43.68564 | 6.82942 | 13301 ft | 357 kts | 342° |
| 2026-04-21 20:44 | 43.70972 | 6.82182 | 14173 ft | 361 kts | 343° |
| 2026-04-21 20:44 | 43.73481 | 6.81400 | 14663 ft | 374 kts | 343° |
| 2026-04-21 20:44 | 43.76049 | 6.80599 | 15381 ft | 381 kts | 343° |
| 2026-04-21 20:45 | 43.78674 | 6.79763 | 15934 ft | 391 kts | 343° |
| 2026-04-21 20:45 | 43.81292 | 6.78919 | 16728 ft | 389 kts | 343° |
| 2026-04-21 20:45 | 43.83936 | 6.78072 | 16912 ft | 385 kts | 343° |
| 2026-04-21 20:45 | 43.86554 | 6.77236 | 16851 ft | 383 kts | 343° |
| 2026-04-21 20:46 | 43.89155 | 6.76424 | 17325 ft | 384 kts | 343° |
| 2026-04-21 20:46 | 43.91750 | 6.75593 | 18034 ft | 389 kts | 343° |
| 2026-04-21 20:46 | 43.94379 | 6.74734 | 18880 ft | 388 kts | 343° |
| 2026-04-21 20:46 | 43.97011 | 6.73867 | 19688 ft | 389 kts | 343° |
| 2026-04-21 20:47 | 43.99662 | 6.73004 | 20418 ft | 391 kts | 343° |
| 2026-04-21 20:47 | 44.02306 | 6.72147 | 20750 ft | 396 kts | 343° |
| 2026-04-21 20:47 | 44.05001 | 6.71282 | 20909 ft | 397 kts | 343° |
| 2026-04-21 20:47 | 44.07704 | 6.70416 | 21077 ft | 396 kts | 343° |
| 2026-04-21 20:48 | 44.10396 | 6.69553 | 21548 ft | 397 kts | 343° |
| 2026-04-21 20:48 | 44.13105 | 6.68668 | 22128 ft | 401 kts | 342° |
| 2026-04-21 20:48 | 44.15802 | 6.67797 | 22825 ft | 403 kts | 343° |
| 2026-04-21 20:48 | 44.18542 | 6.66925 | 23417 ft | 407 kts | 343° |
| 2026-04-21 20:49 | 44.21334 | 6.66045 | 23850 ft | 412 kts | 342° |
| 2026-04-21 20:49 | 44.24013 | 6.64828 | 24503 ft | 406 kts | 333° |
| 2026-04-21 20:49 | 44.26534 | 6.63026 | 25061 ft | 405 kts | 328° |
| 2026-04-21 20:49 | 44.28992 | 6.61061 | 25518 ft | 407 kts | 327° |
| 2026-04-21 20:50 | 44.31455 | 6.59063 | 25980 ft | 409 kts | 327° |
| 2026-04-21 20:50 | 44.33943 | 6.57082 | 26395 ft | 412 kts | 328° |
| 2026-04-21 20:50 | 44.36431 | 6.55151 | 26843 ft | 413 kts | 328° |
| 2026-04-21 20:50 | 44.38954 | 6.53229 | 27325 ft | 413 kts | 328° |
| 2026-04-21 20:51 | 44.41500 | 6.51313 | 27714 ft | 415 kts | 328° |
| 2026-04-21 20:51 | 44.44051 | 6.49401 | 28127 ft | 415 kts | 329° |
| 2026-04-21 20:51 | 44.46605 | 6.47491 | 28515 ft | 418 kts | 329° |
| 2026-04-21 20:51 | 44.49180 | 6.45575 | 28991 ft | 418 kts | 329° |
| 2026-04-21 20:52 | 44.51708 | 6.43690 | 29527 ft | 416 kts | 328° |
| 2026-04-21 20:52 | 44.54246 | 6.41779 | 30124 ft | 413 kts | 328° |
| 2026-04-21 20:52 | 44.56774 | 6.39855 | 30651 ft | 411 kts | 328° |
| 2026-04-21 20:52 | 44.59278 | 6.37946 | 31162 ft | 408 kts | 328° |
| 2026-04-21 20:53 | 44.61778 | 6.36044 | 31672 ft | 407 kts | 328° |
| 2026-04-21 20:53 | 44.63423 | 6.34794 | 32043 ft | 405 kts | 328° |
| 2026-04-21 20:53 | 44.65900 | 6.32916 | 32629 ft | 403 kts | 328° |
| 2026-04-21 20:53 | 44.69168 | 6.30440 | 33327 ft | 400 kts | 328° |
| 2026-04-21 20:54 | 44.70820 | 6.29189 | 33643 ft | 399 kts | 328° |
| 2026-04-21 20:54 | 44.73237 | 6.27356 | 33927 ft | 400 kts | 327° |
| 2026-04-21 20:54 | 44.78139 | 6.23636 | 33977 ft | 399 kts | 327° |
| 2026-04-21 20:55 | 44.83035 | 6.19914 | 33970 ft | 398 kts | 327° |
| 2026-04-21 20:55 | 44.87913 | 6.16200 | 33983 ft | 397 kts | 327° |
| 2026-04-21 20:56 | 44.92776 | 6.12489 | 33966 ft | 396 kts | 327° |
| 2026-04-21 20:56 | 44.97491 | 6.08883 | 33970 ft | 395 kts | 327° |
| 2026-04-21 20:57 | 45.02334 | 6.05174 | 33988 ft | 394 kts | 328° |
| 2026-04-21 20:57 | 45.07125 | 6.01495 | 33984 ft | 393 kts | 327° |
| 2026-04-21 20:58 | 45.11927 | 5.97805 | 34014 ft | 391 kts | 327° |
| 2026-04-21 20:58 | 45.16710 | 5.94120 | 34000 ft | 390 kts | 327° |
| 2026-04-21 20:59 | 45.21485 | 5.90432 | 33992 ft | 394 kts | 327° |
| 2026-04-21 20:59 | 45.26325 | 5.86689 | 33985 ft | 396 kts | 328° |
| 2026-04-21 21:00 | 45.31168 | 5.82935 | 34001 ft | 396 kts | 328° |
| 2026-04-21 21:00 | 45.35980 | 5.79199 | 34000 ft | 397 kts | 327° |
| 2026-04-21 21:01 | 45.40831 | 5.75427 | 33998 ft | 397 kts | 327° |
| 2026-04-21 21:01 | 45.45683 | 5.71646 | 33993 ft | 395 kts | 327° |
| 2026-04-21 21:02 | 45.50476 | 5.67902 | 34003 ft | 394 kts | 327° |
| 2026-04-21 21:02 | 45.55295 | 5.64131 | 33996 ft | 393 kts | 327° |
| 2026-04-21 21:03 | 45.60072 | 5.60385 | 34000 ft | 393 kts | 327° |
| 2026-04-21 21:03 | 45.64866 | 5.56619 | 34000 ft | 393 kts | 327° |
| 2026-04-21 21:04 | 45.69657 | 5.52847 | 33998 ft | 392 kts | 327° |
| 2026-04-21 21:04 | 45.74415 | 5.49094 | 34010 ft | 392 kts | 327° |
| 2026-04-21 21:05 | 45.79200 | 5.45312 | 34008 ft | 392 kts | 327° |
| 2026-04-21 21:05 | 45.83984 | 5.41524 | 34010 ft | 392 kts | 327° |
| 2026-04-21 21:06 | 45.88770 | 5.37726 | 34020 ft | 393 kts | 327° |
| 2026-04-21 21:06 | 45.93532 | 5.33940 | 34019 ft | 393 kts | 327° |
| 2026-04-21 21:07 | 45.98328 | 5.30119 | 34017 ft | 393 kts | 327° |
| 2026-04-21 21:07 | 46.03108 | 5.26304 | 34033 ft | 392 kts | 327° |
| 2026-04-21 21:08 | 46.07854 | 5.22507 | 34024 ft | 392 kts | 327° |
| 2026-04-21 21:08 | 46.12632 | 5.18678 | 34019 ft | 392 kts | 327° |
| 2026-04-21 21:09 | 46.17419 | 5.14834 | 34024 ft | 392 kts | 327° |
| 2026-04-21 21:09 | 46.22275 | 5.11291 | 34012 ft | 398 kts | 335° |
| 2026-04-21 21:10 | 46.27671 | 5.09210 | 34021 ft | 400 kts | 337° |
| 2026-04-21 21:10 | 46.32694 | 5.05956 | 34026 ft | 394 kts | 330° |
| 2026-04-21 21:11 | 46.37635 | 5.02575 | 34022 ft | 394 kts | 330° |
| 2026-04-21 21:11 | 46.42628 | 4.99193 | 34031 ft | 395 kts | 330° |
| 2026-04-21 21:12 | 46.47589 | 4.95836 | 34034 ft | 395 kts | 330° |
| 2026-04-21 21:12 | 46.52582 | 4.92450 | 34037 ft | 395 kts | 330° |
| 2026-04-21 21:13 | 46.57541 | 4.89080 | 34047 ft | 395 kts | 330° |
| 2026-04-21 21:13 | 46.62539 | 4.85677 | 34048 ft | 395 kts | 330° |
| 2026-04-21 21:14 | 46.67503 | 4.82289 | 34059 ft | 395 kts | 330° |
| 2026-04-21 21:14 | 46.72498 | 4.78873 | 34063 ft | 395 kts | 330° |
| 2026-04-21 21:15 | 46.77452 | 4.75477 | 34068 ft | 395 kts | 330° |
| 2026-04-21 21:15 | 46.82436 | 4.72055 | 34072 ft | 395 kts | 330° |
| 2026-04-21 21:16 | 46.87393 | 4.68644 | 34080 ft | 395 kts | 330° |
| 2026-04-21 21:16 | 46.92374 | 4.65210 | 34082 ft | 395 kts | 330° |
| 2026-04-21 21:17 | 46.97354 | 4.61769 | 34090 ft | 394 kts | 330° |
| 2026-04-21 21:17 | 47.02291 | 4.58350 | 34089 ft | 394 kts | 330° |
| 2026-04-21 21:18 | 47.07252 | 4.54909 | 34099 ft | 393 kts | 329° |
| 2026-04-21 21:18 | 47.12179 | 4.51483 | 34103 ft | 393 kts | 329° |
| 2026-04-21 21:19 | 47.17133 | 4.48032 | 34101 ft | 393 kts | 329° |
| 2026-04-21 21:19 | 47.22048 | 4.44601 | 34104 ft | 393 kts | 329° |
| 2026-04-21 21:20 | 47.26999 | 4.41137 | 34111 ft | 393 kts | 329° |
| 2026-04-21 21:20 | 47.31920 | 4.37687 | 34110 ft | 393 kts | 329° |
| 2026-04-21 21:21 | 47.36875 | 4.34207 | 34112 ft | 394 kts | 329° |
| 2026-04-21 21:21 | 47.41811 | 4.30732 | 34110 ft | 394 kts | 329° |
| 2026-04-21 21:22 | 47.46769 | 4.27235 | 34117 ft | 394 kts | 329° |
| 2026-04-21 21:22 | 47.51717 | 4.23736 | 34119 ft | 394 kts | 329° |
| 2026-04-21 21:23 | 47.56658 | 4.20237 | 34119 ft | 393 kts | 329° |
| 2026-04-21 21:23 | 47.59098 | 4.18505 | 33975 ft | 395 kts | 329° |
| 2026-04-21 21:23 | 47.61575 | 4.16745 | 33691 ft | 394 kts | 329° |
| 2026-04-21 21:24 | 47.64051 | 4.14984 | 32934 ft | 396 kts | 330° |
| 2026-04-21 21:24 | 47.66529 | 4.13221 | 32111 ft | 394 kts | 330° |
| 2026-04-21 21:24 | 47.68998 | 4.11462 | 31200 ft | 394 kts | 330° |
| 2026-04-21 21:24 | 47.71479 | 4.09692 | 30231 ft | 395 kts | 330° |
| 2026-04-21 21:25 | 47.73966 | 4.07915 | 29091 ft | 397 kts | 330° |
| 2026-04-21 21:25 | 47.76460 | 4.06131 | 28002 ft | 397 kts | 330° |
| 2026-04-21 21:25 | 47.78927 | 4.04368 | 27255 ft | 390 kts | 331° |
| 2026-04-21 21:25 | 47.81331 | 4.02649 | 26509 ft | 385 kts | 331° |
| 2026-04-21 21:26 | 47.83734 | 4.00928 | 25731 ft | 380 kts | 331° |
| 2026-04-21 21:26 | 47.86108 | 3.99225 | 24984 ft | 376 kts | 331° |
| 2026-04-21 21:26 | 47.88454 | 3.97539 | 24258 ft | 372 kts | 331° |
| 2026-04-21 21:26 | 47.90775 | 3.95869 | 23504 ft | 368 kts | 332° |
| 2026-04-21 21:27 | 47.93074 | 3.94214 | 22680 ft | 365 kts | 332° |
| 2026-04-21 21:27 | 47.95320 | 3.92596 | 21952 ft | 360 kts | 332° |
| 2026-04-21 21:27 | 47.97575 | 3.90968 | 21230 ft | 358 kts | 332° |
| 2026-04-21 21:27 | 47.99815 | 3.89350 | 20480 ft | 356 kts | 332° |
| 2026-04-21 21:28 | 48.02054 | 3.87731 | 19785 ft | 362 kts | 332° |
| 2026-04-21 21:28 | 48.04365 | 3.86055 | 19060 ft | 373 kts | 332° |
| 2026-04-21 21:28 | 48.09016 | 3.82683 | 17442 ft | 368 kts | 332° |
| 2026-04-21 21:29 | 48.11310 | 3.81019 | 16666 ft | 364 kts | 333° |
| 2026-04-21 21:29 | 48.13545 | 3.79397 | 15942 ft | 360 kts | 333° |
| 2026-04-21 21:29 | 48.15793 | 3.77762 | 15217 ft | 358 kts | 334° |
| 2026-04-21 21:29 | 48.18023 | 3.76139 | 14500 ft | 356 kts | 334° |
| 2026-04-21 21:30 | 48.20252 | 3.74515 | 13733 ft | 356 kts | 334° |
| 2026-04-21 21:30 | 48.22486 | 3.72886 | 12943 ft | 355 kts | 335° |
| 2026-04-21 21:30 | 48.24704 | 3.71267 | 12196 ft | 353 kts | 335° |
| 2026-04-21 21:30 | 48.26883 | 3.69675 | 11459 ft | 351 kts | 335° |
| 2026-04-21 21:31 | 48.29069 | 3.68077 | 11029 ft | 342 kts | 335° |
| 2026-04-21 21:31 | 48.31166 | 3.66540 | 10796 ft | 328 kts | 335° |
| 2026-04-21 21:31 | 48.33175 | 3.65067 | 10642 ft | 313 kts | 335° |
| 2026-04-21 21:31 | 48.35080 | 3.63669 | 10503 ft | 301 kts | 335° |
| 2026-04-21 21:32 | 48.36928 | 3.62312 | 10380 ft | 289 kts | 336° |
| 2026-04-21 21:32 | 48.38700 | 3.61009 | 10242 ft | 278 kts | 336° |
| 2026-04-21 21:32 | 48.40410 | 3.59753 | 10063 ft | 270 kts | 336° |
| 2026-04-21 21:32 | 48.42095 | 3.58514 | 9712 ft | 269 kts | 336° |
| 2026-04-21 21:33 | 48.43756 | 3.57293 | 9354 ft | 268 kts | 336° |
| 2026-04-21 21:33 | 48.45429 | 3.56061 | 9010 ft | 267 kts | 337° |
| 2026-04-21 21:33 | 48.47103 | 3.54828 | 8664 ft | 266 kts | 337° |
| 2026-04-21 21:33 | 48.48769 | 3.53600 | 8327 ft | 266 kts | 337° |
| 2026-04-21 21:34 | 48.50415 | 3.52385 | 7994 ft | 266 kts | 338° |
| 2026-04-21 21:34 | 48.52081 | 3.51154 | 7678 ft | 265 kts | 338° |
| 2026-04-21 21:34 | 48.53740 | 3.49927 | 7372 ft | 264 kts | 338° |
| 2026-04-21 21:34 | 48.55328 | 3.48524 | 7192 ft | 268 kts | 323° |
| 2026-04-21 21:35 | 48.56632 | 3.46552 | 7182 ft | 269 kts | 317° |
| 2026-04-21 21:35 | 48.57906 | 3.44470 | 7176 ft | 268 kts | 316° |
| 2026-04-21 21:35 | 48.59149 | 3.42426 | 7158 ft | 258 kts | 316° |
| 2026-04-21 21:35 | 48.60357 | 3.40445 | 6936 ft | 256 kts | 317° |
| 2026-04-21 21:36 | 48.61577 | 3.38460 | 6843 ft | 262 kts | 317° |
| 2026-04-21 21:36 | 48.62850 | 3.36405 | 6784 ft | 276 kts | 317° |
| 2026-04-21 21:36 | 48.64177 | 3.34260 | 6700 ft | 280 kts | 317° |
| 2026-04-21 21:36 | 48.65510 | 3.32105 | 6611 ft | 279 kts | 317° |
| 2026-04-21 21:37 | 48.66839 | 3.29955 | 6530 ft | 279 kts | 317° |
| 2026-04-21 21:37 | 48.68167 | 3.27809 | 6455 ft | 278 kts | 317° |
| 2026-04-21 21:37 | 48.69477 | 3.25693 | 6379 ft | 278 kts | 317° |
| 2026-04-21 21:37 | 48.70803 | 3.23550 | 6294 ft | 277 kts | 317° |
| 2026-04-21 21:38 | 48.71676 | 3.22140 | 6253 ft | 277 kts | 317° |
| 2026-04-21 21:38 | 48.73429 | 3.19303 | 6166 ft | 276 kts | 317° |
| 2026-04-21 21:38 | 48.74743 | 3.17176 | 6092 ft | 276 kts | 317° |
| 2026-04-21 21:38 | 48.75613 | 3.15766 | 6053 ft | 276 kts | 317° |
| 2026-04-21 21:39 | 48.76924 | 3.13642 | 5974 ft | 275 kts | 317° |
| 2026-04-21 21:39 | 48.78659 | 3.10828 | 5881 ft | 275 kts | 317° |
| 2026-04-21 21:39 | 48.79542 | 3.09395 | 5835 ft | 275 kts | 317° |
| 2026-04-21 21:39 | 48.80847 | 3.07277 | 5632 ft | 281 kts | 317° |
| 2026-04-21 21:40 | 48.82186 | 3.05100 | 5521 ft | 281 kts | 317° |
| 2026-04-21 21:40 | 48.83500 | 3.02914 | 5442 ft | 279 kts | 311° |
| 2026-04-21 21:40 | 48.84290 | 3.00222 | 5346 ft | 282 kts | 281° |
| 2026-04-21 21:40 | 48.84337 | 2.97409 | 5304 ft | 281 kts | 266° |
| 2026-04-21 21:41 | 48.84204 | 2.94783 | 5242 ft | 282 kts | 265° |
| 2026-04-21 21:41 | 48.84024 | 2.91794 | 5162 ft | 284 kts | 264° |
| 2026-04-21 21:41 | 48.83840 | 2.88755 | 5060 ft | 290 kts | 264° |
| 2026-04-21 21:41 | 48.83662 | 2.85708 | 4998 ft | 287 kts | 265° |
| 2026-04-21 21:42 | 48.83492 | 2.82718 | 4996 ft | 282 kts | 265° |
| 2026-04-21 21:42 | 48.83329 | 2.79791 | 4993 ft | 280 kts | 265° |
| 2026-04-21 21:42 | 48.83168 | 2.76853 | 4992 ft | 274 kts | 265° |
| 2026-04-21 21:42 | 48.83013 | 2.74030 | 4985 ft | 261 kts | 265° |
| 2026-04-21 21:43 | 48.82865 | 2.71307 | 4750 ft | 261 kts | 265° |
| 2026-04-21 21:43 | 48.82716 | 2.68565 | 4636 ft | 260 kts | 265° |
| 2026-04-21 21:43 | 48.82566 | 2.65817 | 4539 ft | 263 kts | 265° |
| 2026-04-21 21:43 | 48.82410 | 2.62987 | 4490 ft | 276 kts | 265° |
| 2026-04-21 21:44 | 48.82245 | 2.60027 | 4439 ft | 282 kts | 265° |
| 2026-04-21 21:44 | 48.82081 | 2.57053 | 4428 ft | 282 kts | 265° |
| 2026-04-21 21:44 | 48.81918 | 2.54120 | 4428 ft | 283 kts | 265° |
| 2026-04-21 21:44 | 48.81751 | 2.51119 | 4429 ft | 284 kts | 264° |
| 2026-04-21 21:45 | 48.81582 | 2.48130 | 4432 ft | 283 kts | 264° |
| 2026-04-21 21:45 | 48.81414 | 2.45166 | 4425 ft | 281 kts | 264° |
| 2026-04-21 21:45 | 48.81250 | 2.42272 | 4324 ft | 275 kts | 265° |
| 2026-04-21 21:45 | 48.81093 | 2.39419 | 4175 ft | 265 kts | 265° |
| 2026-04-21 21:46 | 48.80946 | 2.36692 | 4018 ft | 252 kts | 265° |
| 2026-04-21 21:46 | 48.80794 | 2.34123 | 3886 ft | 241 kts | 264° |
| 2026-04-21 21:46 | 48.80633 | 2.31594 | 3734 ft | 238 kts | 263° |
| 2026-04-21 21:46 | 48.80477 | 2.29097 | 3615 ft | 238 kts | 265° |
| 2026-04-21 21:47 | 48.80355 | 2.26592 | 3481 ft | 236 kts | 266° |
| 2026-04-21 21:47 | 48.80239 | 2.24127 | 3344 ft | 231 kts | 267° |
| 2026-04-21 21:47 | 48.80136 | 2.21711 | 3221 ft | 228 kts | 265° |
| 2026-04-21 21:47 | 48.80007 | 2.19316 | 3079 ft | 225 kts | 265° |
| 2026-04-21 21:48 | 48.79881 | 2.16999 | 3003 ft | 220 kts | 265° |
| 2026-04-21 21:48 | 48.79941 | 2.14722 | 2985 ft | 215 kts | 292° |
| 2026-04-21 21:48 | 48.80754 | 2.12933 | 3002 ft | 201 kts | 333° |
| 2026-04-21 21:48 | 48.81978 | 2.12212 | 3007 ft | 185 kts | 6° |
| 2026-04-21 21:49 | 48.83251 | 2.12265 | 3007 ft | 183 kts | 12° |
| 2026-04-21 21:49 | 48.84525 | 2.12341 | 3000 ft | 183 kts | 11° |
| 2026-04-21 21:49 | 48.85807 | 2.12426 | 3008 ft | 184 kts | 12° |
| 2026-04-21 21:49 | 48.87069 | 2.12551 | 3005 ft | 181 kts | 20° |
| 2026-04-21 21:50 | 48.88023 | 2.13522 | 3010 ft | 160 kts | 61° |
| 2026-04-21 21:50 | 48.88649 | 2.14915 | 3000 ft | 159 kts | 58° |
| 2026-04-21 21:50 | 48.89239 | 2.16295 | 3006 ft | 157 kts | 65° |
| 2026-04-21 21:50 | 48.89779 | 2.17737 | 2996 ft | 157 kts | 66° |
| 2026-04-21 21:51 | 48.90269 | 2.19223 | 3007 ft | 156 kts | 69° |
| 2026-04-21 21:51 | 48.90709 | 2.20750 | 3006 ft | 158 kts | 71° |
| 2026-04-21 21:51 | 48.91134 | 2.22311 | 2972 ft | 161 kts | 71° |
| 2026-04-21 21:51 | 48.91551 | 2.23873 | 2808 ft | 160 kts | 71° |
| 2026-04-21 21:52 | 48.91961 | 2.25412 | 2578 ft | 154 kts | 71° |
| 2026-04-21 21:52 | 48.92354 | 2.26888 | 2372 ft | 148 kts | 71° |
| 2026-04-21 21:52 | 48.92732 | 2.28314 | 2176 ft | 142 kts | 72° |
| 2026-04-21 21:52 | 48.93096 | 2.29685 | 1981 ft | 136 kts | 71° |
| 2026-04-21 21:53 | 48.93442 | 2.30986 | 1801 ft | 132 kts | 71° |
| 2026-04-21 21:53 | 48.93784 | 2.32277 | 1627 ft | 133 kts | 70° |
| 2026-04-21 21:53 | 48.94141 | 2.33615 | 1446 ft | 139 kts | 70° |
| 2026-04-21 21:53 | 48.94501 | 2.34967 | 1252 ft | 132 kts | 69° |
| 2026-04-21 21:54 | 48.94864 | 2.36288 | 1120 ft | 135 kts | 67° |
| 2026-04-21 21:54 | 48.95190 | 2.37561 | 855 ft | 127 kts | 66° |
| 2026-04-21 21:54 | 48.95505 | 2.38744 | 650 ft | 121 kts | 66° |
| 2026-04-21 21:54 | 48.95818 | 2.39937 | 528 ft | 122 kts | 65° |
| 2026-04-21 21:55 | 48.96149 | 2.41158 | 418 ft | 124 kts | 67° |
| 2026-04-21 21:55 | 48.96476 | 2.42353 | 204 ft | 118 kts | 66° |
| 2026-04-21 21:55 | 48.96745 | 2.43367 | 181 ft | 85 kts | 68° |
| 2026-04-21 21:55 | 48.96942 | 2.44101 | 197 ft | 64 kts | 68° |
| 2026-04-21 21:56 | 48.97078 | 2.44600 | 188 ft | 46 kts | 67° |
| 2026-04-21 21:56 | 48.97185 | 2.45013 | 209 ft | 37 kts | 68° |
| 2026-04-21 21:56 | 48.97273 | 2.45339 | 221 ft | 30 kts | 68° |
| 2026-04-21 21:56 | 48.97347 | 2.45618 | 223 ft | 23 kts | 68° |
| 2026-04-21 21:57 | 48.97374 | 2.45807 | 228 ft | 17 kts | 106° |
| 2026-04-21 21:57 | 48.97279 | 2.45884 | 226 ft | 18 kts | 195° |
| 2026-04-21 21:57 | 48.97188 | 2.45751 | 223 ft | 19 kts | 243° |
| 2026-04-21 21:57 | 48.97139 | 2.45560 | 218 ft | 21 kts | 250° |
| 2026-04-21 21:58 | 48.97081 | 2.45342 | 211 ft | 24 kts | 248° |
| 2026-04-21 21:58 | 48.97021 | 2.45118 | 206 ft | 8 kts | 247° |
| 2026-04-21 21:58 | 48.96991 | 2.45019 | 208 ft | 11 kts | 239° |
| 2026-04-21 21:58 | 48.96917 | 2.45002 | 197 ft | 12 kts | 171° |
| 2026-04-21 21:59 | 48.96826 | 2.45036 | 205 ft | 15 kts | 166° |
| 2026-04-21 21:59 | 48.96707 | 2.45078 | 191 ft | 19 kts | 168° |
| 2026-04-21 21:59 | 48.96579 | 2.45114 | 184 ft | 18 kts | 186° |
| 2026-04-21 21:59 | 48.96494 | 2.45011 | 182 ft | 16 kts | 252° |
| 2026-04-21 22:00 | 48.96477 | 2.44910 | 180 ft | 10 kts | 257° |
| 2026-04-21 22:00 | 48.96461 | 2.44789 | 178 ft | 13 kts | 259° |
| 2026-04-21 22:00 | 48.96431 | 2.44681 | 176 ft | 12 kts | 235° |
| 2026-04-21 22:00 | 48.96367 | 2.44565 | 171 ft | 13 kts | 231° |
| 2026-04-21 22:01 | 48.96311 | 2.44489 | 171 ft | 8 kts | 206° |
| 2026-04-21 22:01 | 48.96255 | 2.44448 | 171 ft | 10 kts | 206° |
| 2026-04-21 22:01 | 48.96183 | 2.44396 | 167 ft | 14 kts | 204° |
| 2026-04-21 22:01 | 48.96086 | 2.44331 | 163 ft | 11 kts | 205° |
| 2026-04-21 22:02 | 48.96055 | 2.44309 | 163 ft | 0 kts | 205° |
| 2026-04-21 22:02 | 48.96055 | 2.44308 | 163 ft | 0 kts | 205° |
| 2026-04-21 22:02 | 48.96037 | 2.44295 | 162 ft | 9 kts | 205° |
| 2026-04-21 22:03 | 48.95955 | 2.44237 | 160 ft | 16 kts | 205° |
| 2026-04-21 22:03 | 48.95843 | 2.44159 | 156 ft | 19 kts | 204° |
| 2026-04-21 22:03 | 48.95722 | 2.44073 | 155 ft | 19 kts | 206° |
| 2026-04-21 22:03 | 48.95606 | 2.43992 | 155 ft | 18 kts | 203° |
| 2026-04-21 22:04 | 48.95493 | 2.43911 | 154 ft | 18 kts | 207° |
| 2026-04-21 22:04 | 48.95383 | 2.43820 | 152 ft | 19 kts | 208° |
| 2026-04-21 22:04 | 48.95302 | 2.43756 | 152 ft | 8 kts | 208° |
| 2026-04-21 22:04 | 48.95280 | 2.43737 | 152 ft | 0 kts | 208° |
| 2026-04-21 22:06 | 48.95275 | 2.43734 | 152 ft | 2 kts | 208° |
| 2026-04-21 22:06 | 48.95253 | 2.43715 | 152 ft | 5 kts | 208° |
| 2026-04-21 22:06 | 48.95216 | 2.43684 | 152 ft | 7 kts | 209° |
| 2026-04-21 22:06 | 48.95171 | 2.43646 | 152 ft | 8 kts | 209° |
| 2026-04-21 22:07 | 48.95135 | 2.43607 | 152 ft | 5 kts | 240° |
| 2026-04-21 22:07 | 48.95140 | 2.43550 | 152 ft | 6 kts | 290° |
| 2026-04-21 22:07 | 48.95164 | 2.43473 | 152 ft | 9 kts | 295° |
| 2026-04-21 22:07 | 48.95193 | 2.43380 | 152 ft | 10 kts | 295° |
| 2026-04-21 22:08 | 48.95197 | 2.43284 | 153 ft | 10 kts | 221° |
| 2026-04-21 22:08 | 48.95134 | 2.43240 | 154 ft | 10 kts | 206° |
| 2026-04-21 22:08 | 48.95060 | 2.43191 | 153 ft | 13 kts | 203° |
| 2026-04-21 22:08 | 48.94972 | 2.43129 | 153 ft | 13 kts | 204° |
| 2026-04-21 22:09 | 48.94922 | 2.43095 | 153 ft | 4 kts | 199° |
| 2026-04-21 22:09 | 48.94911 | 2.43099 | 153 ft | 1 kts | 143° |
| 2026-04-21 22:09 | 48.94911 | 2.43107 | 153 ft | 1 kts | 96° |
| 2026-04-21 22:09 | 48.94909 | 2.43124 | 153 ft | 3 kts | 101° |
| 2026-04-21 22:10 | 48.94903 | 2.43146 | 153 ft | 0 kts | 115° |